sensor_id;sensor_type;location;lat;lon;timestamp;temperature;humidity
4530;DHT22;2277;51.626;7.516;2023-03-23T00:01:57;12.70;99.90
4530;DHT22;2277;51.626;7.516;2023-03-23T00:04:22;12.70;99.90
4530;DHT22;2277;51.626;7.516;2023-03-23T00:06:52;12.70;99.90
4530;DHT22;2277;51.626;7.516;2023-03-23T00:09:18;12.70;99.90
4530;DHT22;2277;51.626;7.516;2023-03-23T00:11:49;12.60;99.90
4530;DHT22;2277;51.626;7.516;2023-03-23T00:14:16;12.60;99.90
4530;DHT22;2277;51.626;7.516;2023-03-23T00:16:47;12.60;99.90
4530;DHT22;2277;51.626;7.516;2023-03-23T00:19:14;12.60;99.90
4530;DHT22;2277;51.626;7.516;2023-03-23T00:21:42;12.50;99.90
4530;DHT22;2277;51.626;7.516;2023-03-23T00:24:16;12.50;99.90
4530;DHT22;2277;51.626;7.516;2023-03-23T00:26:47;12.50;99.90
4530;DHT22;2277;51.626;7.516;2023-03-23T00:31:39;12.50;99.90
4530;DHT22;2277;51.626;7.516;2023-03-23T00:34:05;12.50;99.90
4530;DHT22;2277;51.626;7.516;2023-03-23T00:36:32;12.50;99.90
4530;DHT22;2277;51.626;7.516;2023-03-23T00:39:03;12.60;99.90
4530;DHT22;2277;51.626;7.516;2023-03-23T00:41:31;12.60;99.90
4530;DHT22;2277;51.626;7.516;2023-03-23T00:43:58;12.60;99.90
4530;DHT22;2277;51.626;7.516;2023-03-23T00:46:26;12.60;99.90
4530;DHT22;2277;51.626;7.516;2023-03-23T00:48:53;12.60;99.90
4530;DHT22;2277;51.626;7.516;2023-03-23T00:51:19;12.70;99.90
4530;DHT22;2277;51.626;7.516;2023-03-23T00:53:45;12.60;99.90
4530;DHT22;2277;51.626;7.516;2023-03-23T00:56:11;12.60;99.90
4530;DHT22;2277;51.626;7.516;2023-03-23T00:58:37;12.60;99.90
4530;DHT22;2277;51.626;7.516;2023-03-23T01:01:03;12.50;99.90
4530;DHT22;2277;51.626;7.516;2023-03-23T01:03:29;12.60;99.90
4530;DHT22;2277;51.626;7.516;2023-03-23T01:05:55;12.60;99.90
4530;DHT22;2277;51.626;7.516;2023-03-23T01:08:21;12.60;99.90
4530;DHT22;2277;51.626;7.516;2023-03-23T01:10:48;12.60;99.90
4530;DHT22;2277;51.626;7.516;2023-03-23T01:13:14;12.70;99.90
4530;DHT22;2277;51.626;7.516;2023-03-23T01:15:41;12.70;99.90
4530;DHT22;2277;51.626;7.516;2023-03-23T01:18:08;12.70;99.90
4530;DHT22;2277;51.626;7.516;2023-03-23T01:20:36;12.70;99.90
4530;DHT22;2277;51.626;7.516;2023-03-23T01:23:02;12.80;99.90
4530;DHT22;2277;51.626;7.516;2023-03-23T01:25:32;12.80;99.90
4530;DHT22;2277;51.626;7.516;2023-03-23T01:28:00;12.70;99.90
4530;DHT22;2277;51.626;7.516;2023-03-23T01:30:25;12.90;99.90
4530;DHT22;2277;51.626;7.516;2023-03-23T01:32:52;12.80;99.90
4530;DHT22;2277;51.626;7.516;2023-03-23T01:35:18;12.90;99.90
4530;DHT22;2277;51.626;7.516;2023-03-23T01:37:44;12.90;99.90
4530;DHT22;2277;51.626;7.516;2023-03-23T01:40:10;12.90;99.90
4530;DHT22;2277;51.626;7.516;2023-03-23T01:42:37;12.90;99.90
4530;DHT22;2277;51.626;7.516;2023-03-23T01:45:24;12.90;99.90
4530;DHT22;2277;51.626;7.516;2023-03-23T01:48:13;12.90;99.90
4530;DHT22;2277;51.626;7.516;2023-03-23T01:51:06;12.90;99.90
4530;DHT22;2277;51.626;7.516;2023-03-23T01:53:39;12.90;99.90
4530;DHT22;2277;51.626;7.516;2023-03-23T01:56:07;12.90;99.90
4530;DHT22;2277;51.626;7.516;2023-03-23T01:58:35;12.90;99.90
4530;DHT22;2277;51.626;7.516;2023-03-23T02:01:05;12.90;99.90
4530;DHT22;2277;51.626;7.516;2023-03-23T02:03:34;12.90;99.90
4530;DHT22;2277;51.626;7.516;2023-03-23T02:06:01;12.80;99.90
4530;DHT22;2277;51.626;7.516;2023-03-23T02:08:29;12.60;99.90
4530;DHT22;2277;51.626;7.516;2023-03-23T02:10:58;12.50;99.90
4530;DHT22;2277;51.626;7.516;2023-03-23T02:13:24;12.60;99.90
4530;DHT22;2277;51.626;7.516;2023-03-23T02:18:50;12.60;99.90
4530;DHT22;2277;51.626;7.516;2023-03-23T02:21:37;12.80;99.90
4530;DHT22;2277;51.626;7.516;2023-03-23T02:35:45;13.00;99.90
4530;DHT22;2277;51.626;7.516;2023-03-23T02:38:17;13.00;99.90
4530;DHT22;2277;51.626;7.516;2023-03-23T02:40:47;13.00;99.90
4530;DHT22;2277;51.626;7.516;2023-03-23T02:43:16;13.00;99.90
4530;DHT22;2277;51.626;7.516;2023-03-23T02:45:44;13.10;99.90
4530;DHT22;2277;51.626;7.516;2023-03-23T02:48:13;13.00;99.90
4530;DHT22;2277;51.626;7.516;2023-03-23T02:50:42;12.90;99.90
4530;DHT22;2277;51.626;7.516;2023-03-23T02:53:10;12.90;99.90
4530;DHT22;2277;51.626;7.516;2023-03-23T02:55:39;13.00;99.90
4530;DHT22;2277;51.626;7.516;2023-03-23T02:58:11;13.00;99.90
4530;DHT22;2277;51.626;7.516;2023-03-23T03:00:38;13.00;99.90
4530;DHT22;2277;51.626;7.516;2023-03-23T03:03:07;12.90;99.90
4530;DHT22;2277;51.626;7.516;2023-03-23T03:05:39;12.80;99.90
4530;DHT22;2277;51.626;7.516;2023-03-23T03:11:46;12.80;99.90
4530;DHT22;2277;51.626;7.516;2023-03-23T03:14:37;12.70;99.90
4530;DHT22;2277;51.626;7.516;2023-03-23T03:17:42;12.70;99.90
4530;DHT22;2277;51.626;7.516;2023-03-23T03:20:02;12.70;99.90
4530;DHT22;2277;51.626;7.516;2023-03-23T03:22:36;12.80;99.90
4530;DHT22;2277;51.626;7.516;2023-03-23T03:25:04;12.90;99.90
4530;DHT22;2277;51.626;7.516;2023-03-23T03:27:31;12.80;99.90
4530;DHT22;2277;51.626;7.516;2023-03-23T03:29:59;12.90;99.90
4530;DHT22;2277;51.626;7.516;2023-03-23T03:32:31;12.80;99.90
4530;DHT22;2277;51.626;7.516;2023-03-23T03:35:01;12.80;99.90
4530;DHT22;2277;51.626;7.516;2023-03-23T03:37:34;12.80;99.90
4530;DHT22;2277;51.626;7.516;2023-03-23T03:40:06;12.70;99.90
4530;DHT22;2277;51.626;7.516;2023-03-23T03:42:37;12.60;99.90
4530;DHT22;2277;51.626;7.516;2023-03-23T03:45:03;12.60;99.90
4530;DHT22;2277;51.626;7.516;2023-03-23T03:47:29;12.70;99.90
4530;DHT22;2277;51.626;7.516;2023-03-23T03:49:54;12.80;99.90
4530;DHT22;2277;51.626;7.516;2023-03-23T03:52:20;12.80;99.90
4530;DHT22;2277;51.626;7.516;2023-03-23T03:54:46;12.70;99.90
4530;DHT22;2277;51.626;7.516;2023-03-23T03:57:12;12.80;99.90
4530;DHT22;2277;51.626;7.516;2023-03-23T03:59:38;12.80;99.90
4530;DHT22;2277;51.626;7.516;2023-03-23T04:02:04;12.80;99.90
4530;DHT22;2277;51.626;7.516;2023-03-23T04:04:29;12.80;99.90
4530;DHT22;2277;51.626;7.516;2023-03-23T04:06:55;12.90;99.90
4530;DHT22;2277;51.626;7.516;2023-03-23T04:09:20;12.90;99.90
4530;DHT22;2277;51.626;7.516;2023-03-23T04:11:46;12.80;99.90
4530;DHT22;2277;51.626;7.516;2023-03-23T04:14:12;12.90;99.90
4530;DHT22;2277;51.626;7.516;2023-03-23T04:16:38;12.70;99.90
4530;DHT22;2277;51.626;7.516;2023-03-23T04:19:03;12.70;99.90
4530;DHT22;2277;51.626;7.516;2023-03-23T04:21:29;12.70;99.90
4530;DHT22;2277;51.626;7.516;2023-03-23T04:23:56;12.80;99.90
4530;DHT22;2277;51.626;7.516;2023-03-23T04:26:27;12.80;99.90
4530;DHT22;2277;51.626;7.516;2023-03-23T04:28:56;12.80;99.90
4530;DHT22;2277;51.626;7.516;2023-03-23T04:31:22;12.90;99.90
4530;DHT22;2277;51.626;7.516;2023-03-23T04:33:51;12.90;99.90
4530;DHT22;2277;51.626;7.516;2023-03-23T04:36:18;12.90;99.90
4530;DHT22;2277;51.626;7.516;2023-03-23T04:38:44;12.90;99.90
4530;DHT22;2277;51.626;7.516;2023-03-23T04:41:10;12.90;99.90
4530;DHT22;2277;51.626;7.516;2023-03-23T04:43:36;13.00;99.90
4530;DHT22;2277;51.626;7.516;2023-03-23T04:46:07;12.90;99.90
4530;DHT22;2277;51.626;7.516;2023-03-23T04:48:36;12.90;99.90
4530;DHT22;2277;51.626;7.516;2023-03-23T04:51:04;12.90;99.90
4530;DHT22;2277;51.626;7.516;2023-03-23T04:53:31;12.90;99.90
4530;DHT22;2277;51.626;7.516;2023-03-23T04:55:57;12.90;99.90
4530;DHT22;2277;51.626;7.516;2023-03-23T04:58:22;13.00;99.90
4530;DHT22;2277;51.626;7.516;2023-03-23T05:00:50;13.00;99.90
4530;DHT22;2277;51.626;7.516;2023-03-23T05:03:17;13.00;99.90
4530;DHT22;2277;51.626;7.516;2023-03-23T05:05:43;13.00;99.90
4530;DHT22;2277;51.626;7.516;2023-03-23T05:08:13;13.00;99.90
4530;DHT22;2277;51.626;7.516;2023-03-23T05:10:38;13.00;99.90
4530;DHT22;2277;51.626;7.516;2023-03-23T05:13:04;13.00;99.90
4530;DHT22;2277;51.626;7.516;2023-03-23T05:15:30;13.00;99.90
4530;DHT22;2277;51.626;7.516;2023-03-23T05:17:56;13.10;99.90
4530;DHT22;2277;51.626;7.516;2023-03-23T05:20:22;13.10;99.90
4530;DHT22;2277;51.626;7.516;2023-03-23T05:22:48;13.00;99.90
4530;DHT22;2277;51.626;7.516;2023-03-23T05:25:16;13.00;99.90
4530;DHT22;2277;51.626;7.516;2023-03-23T05:27:44;13.10;99.90
4530;DHT22;2277;51.626;7.516;2023-03-23T05:30:14;13.10;99.90
4530;DHT22;2277;51.626;7.516;2023-03-23T05:32:42;13.00;99.90
4530;DHT22;2277;51.626;7.516;2023-03-23T05:35:08;13.10;99.90
4530;DHT22;2277;51.626;7.516;2023-03-23T05:37:34;13.10;99.90
4530;DHT22;2277;51.626;7.516;2023-03-23T05:39:59;13.10;99.90
4530;DHT22;2277;51.626;7.516;2023-03-23T05:42:30;13.10;99.90
4530;DHT22;2277;51.626;7.516;2023-03-23T05:44:56;13.20;99.90
4530;DHT22;2277;51.626;7.516;2023-03-23T05:47:23;13.20;99.90
4530;DHT22;2277;51.626;7.516;2023-03-23T05:49:49;13.20;99.90
4530;DHT22;2277;51.626;7.516;2023-03-23T05:52:14;13.20;99.90
4530;DHT22;2277;51.626;7.516;2023-03-23T05:54:40;13.20;99.90
4530;DHT22;2277;51.626;7.516;2023-03-23T05:57:07;13.20;99.90
4530;DHT22;2277;51.626;7.516;2023-03-23T05:59:34;13.20;99.90
4530;DHT22;2277;51.626;7.516;2023-03-23T06:02:00;13.20;99.90
4530;DHT22;2277;51.626;7.516;2023-03-23T06:04:27;13.20;99.90
4530;DHT22;2277;51.626;7.516;2023-03-23T06:06:53;13.20;99.90
4530;DHT22;2277;51.626;7.516;2023-03-23T06:09:19;13.20;99.90
4530;DHT22;2277;51.626;7.516;2023-03-23T06:11:45;13.10;99.90
4530;DHT22;2277;51.626;7.516;2023-03-23T06:14:11;13.20;99.90
4530;DHT22;2277;51.626;7.516;2023-03-23T06:16:37;13.20;99.90
4530;DHT22;2277;51.626;7.516;2023-03-23T06:19:03;13.20;99.90
4530;DHT22;2277;51.626;7.516;2023-03-23T06:21:30;13.20;99.90
4530;DHT22;2277;51.626;7.516;2023-03-23T06:23:56;13.20;99.90
4530;DHT22;2277;51.626;7.516;2023-03-23T06:26:25;13.20;99.90
4530;DHT22;2277;51.626;7.516;2023-03-23T06:28:51;13.20;99.90
4530;DHT22;2277;51.626;7.516;2023-03-23T06:31:17;13.30;99.90
4530;DHT22;2277;51.626;7.516;2023-03-23T06:33:45;13.30;99.90
4530;DHT22;2277;51.626;7.516;2023-03-23T06:36:13;13.20;99.90
4530;DHT22;2277;51.626;7.516;2023-03-23T06:38:38;13.20;99.90
4530;DHT22;2277;51.626;7.516;2023-03-23T06:41:04;13.30;99.90
4530;DHT22;2277;51.626;7.516;2023-03-23T06:43:30;13.30;99.90
4530;DHT22;2277;51.626;7.516;2023-03-23T06:45:58;13.30;99.90
4530;DHT22;2277;51.626;7.516;2023-03-23T06:48:25;13.30;99.90
4530;DHT22;2277;51.626;7.516;2023-03-23T06:50:50;13.30;99.90
4530;DHT22;2277;51.626;7.516;2023-03-23T06:53:16;13.30;99.90
4530;DHT22;2277;51.626;7.516;2023-03-23T06:55:43;13.30;99.90
4530;DHT22;2277;51.626;7.516;2023-03-23T06:58:09;13.30;99.90
4530;DHT22;2277;51.626;7.516;2023-03-23T07:00:35;13.40;99.90
4530;DHT22;2277;51.626;7.516;2023-03-23T07:03:01;13.40;99.90
4530;DHT22;2277;51.626;7.516;2023-03-23T07:05:27;13.40;99.90
4530;DHT22;2277;51.626;7.516;2023-03-23T07:07:53;13.40;99.90
4530;DHT22;2277;51.626;7.516;2023-03-23T07:10:18;13.40;99.90
4530;DHT22;2277;51.626;7.516;2023-03-23T07:12:44;13.50;99.90
4530;DHT22;2277;51.626;7.516;2023-03-23T07:15:10;13.50;99.90
4530;DHT22;2277;51.626;7.516;2023-03-23T07:17:38;13.50;99.90
4530;DHT22;2277;51.626;7.516;2023-03-23T07:20:04;13.60;99.90
4530;DHT22;2277;51.626;7.516;2023-03-23T07:22:30;13.60;99.90
4530;DHT22;2277;51.626;7.516;2023-03-23T07:24:56;13.60;99.90
4530;DHT22;2277;51.626;7.516;2023-03-23T07:27:21;13.70;99.90
4530;DHT22;2277;51.626;7.516;2023-03-23T07:29:47;13.70;99.90
4530;DHT22;2277;51.626;7.516;2023-03-23T07:32:13;13.70;99.90
4530;DHT22;2277;51.626;7.516;2023-03-23T07:34:39;13.80;99.90
4530;DHT22;2277;51.626;7.516;2023-03-23T07:37:05;13.80;99.90
4530;DHT22;2277;51.626;7.516;2023-03-23T07:39:31;13.90;99.90
4530;DHT22;2277;51.626;7.516;2023-03-23T07:41:57;13.90;99.90
4530;DHT22;2277;51.626;7.516;2023-03-23T07:44:22;13.90;99.90
4530;DHT22;2277;51.626;7.516;2023-03-23T07:46:48;13.90;99.90
4530;DHT22;2277;51.626;7.516;2023-03-23T07:49:14;13.90;99.90
4530;DHT22;2277;51.626;7.516;2023-03-23T07:51:40;13.90;99.90
4530;DHT22;2277;51.626;7.516;2023-03-23T07:54:07;13.90;99.90
4530;DHT22;2277;51.626;7.516;2023-03-23T07:56:37;13.90;99.90
4530;DHT22;2277;51.626;7.516;2023-03-23T07:59:05;13.90;99.90
4530;DHT22;2277;51.626;7.516;2023-03-23T08:01:31;14.00;99.90
4530;DHT22;2277;51.626;7.516;2023-03-23T08:03:57;13.90;99.90
4530;DHT22;2277;51.626;7.516;2023-03-23T08:06:27;14.00;99.90
4530;DHT22;2277;51.626;7.516;2023-03-23T08:08:53;14.00;99.90
4530;DHT22;2277;51.626;7.516;2023-03-23T08:11:19;14.10;99.90
4530;DHT22;2277;51.626;7.516;2023-03-23T08:13:45;14.20;99.90
4530;DHT22;2277;51.626;7.516;2023-03-23T08:16:11;14.20;99.90
4530;DHT22;2277;51.626;7.516;2023-03-23T08:18:39;14.20;99.90
4530;DHT22;2277;51.626;7.516;2023-03-23T08:21:06;14.20;99.90
4530;DHT22;2277;51.626;7.516;2023-03-23T08:23:35;14.20;99.90
4530;DHT22;2277;51.626;7.516;2023-03-23T08:26:04;14.20;99.90
4530;DHT22;2277;51.626;7.516;2023-03-23T08:28:32;14.20;99.90
4530;DHT22;2277;51.626;7.516;2023-03-23T08:30:57;14.20;99.90
4530;DHT22;2277;51.626;7.516;2023-03-23T08:33:23;14.20;99.90
4530;DHT22;2277;51.626;7.516;2023-03-23T08:35:56;14.20;99.90
4530;DHT22;2277;51.626;7.516;2023-03-23T08:38:23;14.20;99.90
4530;DHT22;2277;51.626;7.516;2023-03-23T08:40:49;14.30;99.90
4530;DHT22;2277;51.626;7.516;2023-03-23T08:43:16;14.30;99.90
4530;DHT22;2277;51.626;7.516;2023-03-23T08:45:41;14.40;99.90
4530;DHT22;2277;51.626;7.516;2023-03-23T08:48:08;14.40;99.90
4530;DHT22;2277;51.626;7.516;2023-03-23T08:50:34;14.50;99.90
4530;DHT22;2277;51.626;7.516;2023-03-23T08:53:00;14.50;99.90
4530;DHT22;2277;51.626;7.516;2023-03-23T08:55:28;14.40;99.90
4530;DHT22;2277;51.626;7.516;2023-03-23T08:57:54;14.40;99.90
4530;DHT22;2277;51.626;7.516;2023-03-23T09:00:22;14.50;99.90
4530;DHT22;2277;51.626;7.516;2023-03-23T09:02:51;14.50;99.90
4530;DHT22;2277;51.626;7.516;2023-03-23T09:05:20;14.40;99.90
4530;DHT22;2277;51.626;7.516;2023-03-23T09:07:49;14.50;99.90
4530;DHT22;2277;51.626;7.516;2023-03-23T09:10:15;14.50;99.90
4530;DHT22;2277;51.626;7.516;2023-03-23T09:12:42;14.50;99.90
4530;DHT22;2277;51.626;7.516;2023-03-23T09:15:10;14.60;99.90
4530;DHT22;2277;51.626;7.516;2023-03-23T09:17:41;14.60;99.90
4530;DHT22;2277;51.626;7.516;2023-03-23T09:20:08;14.50;99.90
4530;DHT22;2277;51.626;7.516;2023-03-23T09:22:41;14.50;99.90
4530;DHT22;2277;51.626;7.516;2023-03-23T09:25:08;14.60;99.90
4530;DHT22;2277;51.626;7.516;2023-03-23T09:27:35;14.70;99.90
4530;DHT22;2277;51.626;7.516;2023-03-23T09:30:06;14.60;99.90
4530;DHT22;2277;51.626;7.516;2023-03-23T09:32:33;14.60;99.90
4530;DHT22;2277;51.626;7.516;2023-03-23T09:35:01;14.60;99.90
4530;DHT22;2277;51.626;7.516;2023-03-23T09:37:28;14.60;99.90
4530;DHT22;2277;51.626;7.516;2023-03-23T09:39:54;14.70;99.90
4530;DHT22;2277;51.626;7.516;2023-03-23T09:42:41;14.70;99.90
4530;DHT22;2277;51.626;7.516;2023-03-23T09:48:09;14.70;99.90
4530;DHT22;2277;51.626;7.516;2023-03-23T09:50:41;14.70;99.90
4530;DHT22;2277;51.626;7.516;2023-03-23T09:53:29;14.90;99.90
4530;DHT22;2277;51.626;7.516;2023-03-23T09:56:01;15.00;99.90
4530;DHT22;2277;51.626;7.516;2023-03-23T09:58:35;15.00;99.90
4530;DHT22;2277;51.626;7.516;2023-03-23T10:01:28;15.10;99.90
4530;DHT22;2277;51.626;7.516;2023-03-23T10:04:31;15.10;99.90
4530;DHT22;2277;51.626;7.516;2023-03-23T10:07:14;15.20;99.90
4530;DHT22;2277;51.626;7.516;2023-03-23T10:09:42;15.30;99.90
4530;DHT22;2277;51.626;7.516;2023-03-23T10:12:18;15.30;99.90
4530;DHT22;2277;51.626;7.516;2023-03-23T10:15:20;15.40;99.90
4530;DHT22;2277;51.626;7.516;2023-03-23T10:18:09;15.30;99.90
4530;DHT22;2277;51.626;7.516;2023-03-23T10:20:57;15.30;99.90
4530;DHT22;2277;51.626;7.516;2023-03-23T10:23:59;15.30;99.90
4530;DHT22;2277;51.626;7.516;2023-03-23T10:29:21;14.90;99.90
4530;DHT22;2277;51.626;7.516;2023-03-23T10:34:31;14.60;99.90
4530;DHT22;2277;51.626;7.516;2023-03-23T10:37:14;14.50;99.90
4530;DHT22;2277;51.626;7.516;2023-03-23T10:40:01;14.30;99.90
4530;DHT22;2277;51.626;7.516;2023-03-23T10:42:30;14.00;99.90
4530;DHT22;2277;51.626;7.516;2023-03-23T10:45:00;13.80;99.90
4530;DHT22;2277;51.626;7.516;2023-03-23T10:47:26;13.80;99.90
4530;DHT22;2277;51.626;7.516;2023-03-23T10:50:00;13.70;99.90
4530;DHT22;2277;51.626;7.516;2023-03-23T10:52:37;13.50;99.90
4530;DHT22;2277;51.626;7.516;2023-03-23T10:57:44;13.20;99.90
4530;DHT22;2277;51.626;7.516;2023-03-23T11:00:18;13.10;99.90
4530;DHT22;2277;51.626;7.516;2023-03-23T11:02:47;13.00;99.90
4530;DHT22;2277;51.626;7.516;2023-03-23T11:05:26;12.90;99.90
4530;DHT22;2277;51.626;7.516;2023-03-23T11:07:55;13.00;99.90
4530;DHT22;2277;51.626;7.516;2023-03-23T11:10:27;12.90;99.90
4530;DHT22;2277;51.626;7.516;2023-03-23T11:12:57;13.00;99.90
4530;DHT22;2277;51.626;7.516;2023-03-23T11:15:33;13.10;99.90
4530;DHT22;2277;51.626;7.516;2023-03-23T11:18:11;13.10;99.90
4530;DHT22;2277;51.626;7.516;2023-03-23T11:20:43;13.00;99.90
4530;DHT22;2277;51.626;7.516;2023-03-23T11:23:24;13.00;99.90
4530;DHT22;2277;51.626;7.516;2023-03-23T11:25:58;13.10;99.90
4530;DHT22;2277;51.626;7.516;2023-03-23T11:28:32;13.00;99.90
4530;DHT22;2277;51.626;7.516;2023-03-23T11:31:01;13.20;99.90
4530;DHT22;2277;51.626;7.516;2023-03-23T11:33:57;13.20;99.90
4530;DHT22;2277;51.626;7.516;2023-03-23T11:41:52;13.10;99.90
4530;DHT22;2277;51.626;7.516;2023-03-23T11:44:19;13.10;99.90
4530;DHT22;2277;51.626;7.516;2023-03-23T11:46:59;13.00;99.90
4530;DHT22;2277;51.626;7.516;2023-03-23T11:52:22;13.00;99.90
4530;DHT22;2277;51.626;7.516;2023-03-23T11:54:55;12.80;99.90
4530;DHT22;2277;51.626;7.516;2023-03-23T11:57:22;12.70;99.90
4530;DHT22;2277;51.626;7.516;2023-03-23T11:59:49;12.60;99.90
4530;DHT22;2277;51.626;7.516;2023-03-23T12:17:23;12.40;99.90
4530;DHT22;2277;51.626;7.516;2023-03-23T12:30:21;12.10;99.90
4530;DHT22;2277;51.626;7.516;2023-03-23T12:38:10;12.20;99.90
4530;DHT22;2277;51.626;7.516;2023-03-23T12:40:57;12.10;99.90
4530;DHT22;2277;51.626;7.516;2023-03-23T12:46:14;12.00;99.90
4530;DHT22;2277;51.626;7.516;2023-03-23T12:48:48;11.90;99.90
4530;DHT22;2277;51.626;7.516;2023-03-23T12:54:09;12.10;99.90
4530;DHT22;2277;51.626;7.516;2023-03-23T12:57:07;12.10;99.90
4530;DHT22;2277;51.626;7.516;2023-03-23T12:59:49;12.10;99.90
4530;DHT22;2277;51.626;7.516;2023-03-23T13:02:29;12.20;99.90
4530;DHT22;2277;51.626;7.516;2023-03-23T13:05:27;12.20;99.90
4530;DHT22;2277;51.626;7.516;2023-03-23T13:08:02;12.30;99.90
4530;DHT22;2277;51.626;7.516;2023-03-23T13:12:59;12.40;99.90
4530;DHT22;2277;51.626;7.516;2023-03-23T13:15:54;12.40;99.90
4530;DHT22;2277;51.626;7.516;2023-03-23T13:18:42;12.50;99.90
4530;DHT22;2277;51.626;7.516;2023-03-23T13:23:50;12.50;99.90
4530;DHT22;2277;51.626;7.516;2023-03-23T13:26:20;12.60;99.90
4530;DHT22;2277;51.626;7.516;2023-03-23T13:31:38;12.70;99.90
4530;DHT22;2277;51.626;7.516;2023-03-23T13:34:24;12.80;99.90
4530;DHT22;2277;51.626;7.516;2023-03-23T13:37:10;12.90;99.90
4530;DHT22;2277;51.626;7.516;2023-03-23T13:42:29;13.30;99.90
4530;DHT22;2277;51.626;7.516;2023-03-23T13:45:19;13.40;99.90
4530;DHT22;2277;51.626;7.516;2023-03-23T13:47:46;13.40;99.90
4530;DHT22;2277;51.626;7.516;2023-03-23T14:03:05;13.70;99.90
4530;DHT22;2277;51.626;7.516;2023-03-23T14:08:02;13.90;99.90
4530;DHT22;2277;51.626;7.516;2023-03-23T14:13:11;13.90;99.90
4530;DHT22;2277;51.626;7.516;2023-03-23T14:15:45;13.90;99.90
4530;DHT22;2277;51.626;7.516;2023-03-23T14:18:19;13.80;99.90
4530;DHT22;2277;51.626;7.516;2023-03-23T14:20:46;13.80;99.90
4530;DHT22;2277;51.626;7.516;2023-03-23T14:23:16;13.90;99.90
4530;DHT22;2277;51.626;7.516;2023-03-23T14:25:42;13.80;99.90
4530;DHT22;2277;51.626;7.516;2023-03-23T14:28:19;13.90;99.90
4530;DHT22;2277;51.626;7.516;2023-03-23T14:30:56;13.90;99.90
4530;DHT22;2277;51.626;7.516;2023-03-23T14:33:22;14.00;99.90
4530;DHT22;2277;51.626;7.516;2023-03-23T14:35:50;14.00;99.90
4530;DHT22;2277;51.626;7.516;2023-03-23T14:38:20;14.20;99.90
4530;DHT22;2277;51.626;7.516;2023-03-23T14:40:49;14.30;99.90
4530;DHT22;2277;51.626;7.516;2023-03-23T14:43:17;14.40;99.90
4530;DHT22;2277;51.626;7.516;2023-03-23T14:45:51;14.50;99.90
4530;DHT22;2277;51.626;7.516;2023-03-23T14:48:17;14.50;99.90
4530;DHT22;2277;51.626;7.516;2023-03-23T14:50:55;14.50;99.90
4530;DHT22;2277;51.626;7.516;2023-03-23T14:53:25;14.50;99.90
4530;DHT22;2277;51.626;7.516;2023-03-23T14:55:53;14.60;99.90
4530;DHT22;2277;51.626;7.516;2023-03-23T14:58:23;14.60;99.90
4530;DHT22;2277;51.626;7.516;2023-03-23T15:03:22;15.00;99.90
4530;DHT22;2277;51.626;7.516;2023-03-23T15:05:54;15.10;99.90
4530;DHT22;2277;51.626;7.516;2023-03-23T15:08:24;15.20;99.90
4530;DHT22;2277;51.626;7.516;2023-03-23T15:13:31;15.50;99.90
4530;DHT22;2277;51.626;7.516;2023-03-23T15:16:27;15.50;99.90
4530;DHT22;2277;51.626;7.516;2023-03-23T15:19:38;15.60;99.90
4530;DHT22;2277;51.626;7.516;2023-03-23T15:21:52;15.70;99.90
4530;DHT22;2277;51.626;7.516;2023-03-23T15:24:39;15.70;99.90
4530;DHT22;2277;51.626;7.516;2023-03-23T15:27:16;15.70;99.90
4530;DHT22;2277;51.626;7.516;2023-03-23T15:29:51;15.50;99.90
4530;DHT22;2277;51.626;7.516;2023-03-23T15:32:22;15.50;99.90
4530;DHT22;2277;51.626;7.516;2023-03-23T15:34:48;15.40;99.90
4530;DHT22;2277;51.626;7.516;2023-03-23T15:37:34;15.30;99.90
4530;DHT22;2277;51.626;7.516;2023-03-23T15:40:03;15.30;99.90
4530;DHT22;2277;51.626;7.516;2023-03-23T15:42:32;15.30;99.90
4530;DHT22;2277;51.626;7.516;2023-03-23T15:47:48;15.30;99.90
4530;DHT22;2277;51.626;7.516;2023-03-23T15:52:51;15.30;99.90
4530;DHT22;2277;51.626;7.516;2023-03-23T15:55:29;15.40;99.90
4530;DHT22;2277;51.626;7.516;2023-03-23T15:58:01;15.60;99.90
4530;DHT22;2277;51.626;7.516;2023-03-23T16:00:30;15.70;99.90
4530;DHT22;2277;51.626;7.516;2023-03-23T16:02:59;15.80;99.90
4530;DHT22;2277;51.626;7.516;2023-03-23T16:05:26;15.90;99.90
4530;DHT22;2277;51.626;7.516;2023-03-23T16:07:52;16.00;99.90
4530;DHT22;2277;51.626;7.516;2023-03-23T16:10:20;16.10;99.90
4530;DHT22;2277;51.626;7.516;2023-03-23T16:12:46;16.10;99.90
4530;DHT22;2277;51.626;7.516;2023-03-23T16:15:12;16.20;99.90
4530;DHT22;2277;51.626;7.516;2023-03-23T16:17:38;16.20;99.90
4530;DHT22;2277;51.626;7.516;2023-03-23T16:20:16;16.10;99.90
4530;DHT22;2277;51.626;7.516;2023-03-23T16:22:42;16.10;99.90
4530;DHT22;2277;51.626;7.516;2023-03-23T16:25:08;16.10;99.90
4530;DHT22;2277;51.626;7.516;2023-03-23T16:27:35;16.10;99.90
4530;DHT22;2277;51.626;7.516;2023-03-23T16:30:01;16.00;99.90
4530;DHT22;2277;51.626;7.516;2023-03-23T16:32:28;16.00;99.90
4530;DHT22;2277;51.626;7.516;2023-03-23T16:34:54;16.00;99.90
4530;DHT22;2277;51.626;7.516;2023-03-23T16:37:20;16.00;99.90
4530;DHT22;2277;51.626;7.516;2023-03-23T16:39:46;16.00;99.90
4530;DHT22;2277;51.626;7.516;2023-03-23T16:42:11;15.90;99.90
4530;DHT22;2277;51.626;7.516;2023-03-23T16:44:37;15.90;99.90
4530;DHT22;2277;51.626;7.516;2023-03-23T16:47:02;15.80;99.90
4530;DHT22;2277;51.626;7.516;2023-03-23T16:49:28;15.80;99.90
4530;DHT22;2277;51.626;7.516;2023-03-23T16:51:54;15.50;99.90
4530;DHT22;2277;51.626;7.516;2023-03-23T16:54:19;15.50;99.90
4530;DHT22;2277;51.626;7.516;2023-03-23T16:56:45;15.50;99.90
4530;DHT22;2277;51.626;7.516;2023-03-23T16:59:13;15.40;99.90
4530;DHT22;2277;51.626;7.516;2023-03-23T17:01:39;15.30;99.90
4530;DHT22;2277;51.626;7.516;2023-03-23T17:04:05;15.30;99.90
4530;DHT22;2277;51.626;7.516;2023-03-23T17:06:31;15.20;99.90
4530;DHT22;2277;51.626;7.516;2023-03-23T17:08:57;15.10;99.90
4530;DHT22;2277;51.626;7.516;2023-03-23T17:11:22;15.10;99.90
4530;DHT22;2277;51.626;7.516;2023-03-23T17:13:48;15.10;99.90
4530;DHT22;2277;51.626;7.516;2023-03-23T17:16:14;15.10;99.90
4530;DHT22;2277;51.626;7.516;2023-03-23T17:18:39;15.10;99.90
4530;DHT22;2277;51.626;7.516;2023-03-23T17:21:05;15.10;99.90
4530;DHT22;2277;51.626;7.516;2023-03-23T17:23:31;15.00;99.90
4530;DHT22;2277;51.626;7.516;2023-03-23T17:25:57;15.10;99.90
4530;DHT22;2277;51.626;7.516;2023-03-23T17:28:23;15.10;99.90
4530;DHT22;2277;51.626;7.516;2023-03-23T17:30:50;15.10;99.90
4530;DHT22;2277;51.626;7.516;2023-03-23T17:33:16;15.10;99.90
4530;DHT22;2277;51.626;7.516;2023-03-23T17:35:44;15.10;99.90
4530;DHT22;2277;51.626;7.516;2023-03-23T17:38:10;15.00;99.90
4530;DHT22;2277;51.626;7.516;2023-03-23T17:40:36;15.00;99.90
4530;DHT22;2277;51.626;7.516;2023-03-23T17:43:01;14.70;99.90
4530;DHT22;2277;51.626;7.516;2023-03-23T17:45:27;14.70;99.90
4530;DHT22;2277;51.626;7.516;2023-03-23T17:47:53;14.70;99.90
4530;DHT22;2277;51.626;7.516;2023-03-23T17:50:18;14.70;99.90
4530;DHT22;2277;51.626;7.516;2023-03-23T17:52:44;14.60;99.90
4530;DHT22;2277;51.626;7.516;2023-03-23T17:55:09;14.60;99.90
4530;DHT22;2277;51.626;7.516;2023-03-23T17:57:35;14.70;99.90
4530;DHT22;2277;51.626;7.516;2023-03-23T18:00:02;14.60;99.90
4530;DHT22;2277;51.626;7.516;2023-03-23T18:02:27;14.60;99.90
4530;DHT22;2277;51.626;7.516;2023-03-23T18:04:56;14.60;99.90
4530;DHT22;2277;51.626;7.516;2023-03-23T18:07:22;14.50;99.90
4530;DHT22;2277;51.626;7.516;2023-03-23T18:09:48;14.40;99.90
4530;DHT22;2277;51.626;7.516;2023-03-23T18:12:15;14.40;99.90
4530;DHT22;2277;51.626;7.516;2023-03-23T18:14:41;14.30;99.90